Time;durP1;ratioP1;P1;durP2;ratioP2;P2;SDS_P1;SDS_P2;PMS_P1;PMS_P2;Temp;Humidity;BMP_temperature;BMP_pressure;BME280_temperature;BME280_humidity;BME280_pressure;Samples;Min_cycle;Max_cycle;Signal;HPM_P1;HPM_P2
2023/04/12 00:00:34;;;;;;;4.70;1.83;;;;;;;8.46;88.50;100491.50;5093954;28;20476;-86
2023/04/12 00:03:01;;;;;;;5.73;1.97;;;;;;;8.42;85.02;100476.91;5093541;28;20099;-86
2023/04/12 00:05:27;;;;;;;3.72;1.67;;;;;;;8.39;85.97;100476.94;5093127;28;20053;-85
2023/04/12 00:07:53;;;;;;;5.07;2.10;;;;;;;8.40;86.68;100454.50;5093890;28;20032;-85
2023/04/12 00:10:19;;;;;;;4.75;1.90;;;;;;;8.26;87.31;100446.94;5094066;28;20411;-86
2023/04/12 00:12:45;;;;;;;7.03;2.30;;;;;;;8.38;86.58;100449.34;5091519;28;20027;-86
2023/04/12 00:15:11;;;;;;;5.33;2.17;;;;;;;8.23;88.67;100449.53;5093158;28;20403;-85
2023/04/12 00:17:36;;;;;;;4.33;2.00;;;;;;;8.26;86.99;100427.13;5093372;28;20024;-86
2023/04/12 00:20:04;;;;;;;3.93;1.70;;;;;;;8.17;87.36;100440.13;5092967;28;20032;-85
2023/04/12 00:22:30;;;;;;;5.57;1.85;;;;;;;8.17;87.22;100437.53;5093490;28;20020;-86
2023/04/12 00:24:55;;;;;;;3.87;1.90;;;;;;;8.13;87.10;100420.38;5093081;28;20438;-85
2023/04/12 00:27:20;;;;;;;2.73;1.60;;;;;;;8.14;88.03;100415.19;5092031;28;20130;-85
2023/04/12 00:29:46;;;;;;;3.77;1.80;;;;;;;8.16;88.00;100403.09;5093407;28;20024;-85
2023/04/12 00:32:11;;;;;;;3.67;1.90;;;;;;;8.19;87.44;100391.84;5093175;28;20108;-84
2023/04/12 00:34:36;;;;;;;6.13;1.80;;;;;;;8.06;91.30;100378.25;5092669;28;20020;-85
2023/04/12 00:37:01;;;;;;;3.80;1.80;;;;;;;8.11;88.98;100380.75;5093640;28;20024;-85
2023/04/12 00:39:27;;;;;;;4.80;1.90;;;;;;;8.04;89.16;100375.69;5092993;28;20102;-85
2023/04/12 00:41:53;;;;;;;6.30;2.33;;;;;;;7.98;88.68;100352.47;5093158;28;20020;-85
2023/04/12 00:44:18;;;;;;;4.20;1.70;;;;;;;8.04;89.61;100348.97;5093000;28;20102;-85
2023/04/12 00:46:45;;;;;;;6.53;2.20;;;;;;;8.03;89.55;100347.25;5092222;28;20468;-86
2023/04/12 00:49:14;;;;;;;3.45;1.88;;;;;;;7.99;89.59;100349.03;5093346;28;20477;-86
2023/04/12 00:51:42;;;;;;;4.32;1.80;;;;;;;8.10;90.22;100342.88;5092973;28;20090;-86
2023/04/12 00:54:07;;;;;;;6.57;2.30;;;;;;;8.07;90.87;100337.72;5092490;28;20035;-85
2023/04/12 00:56:33;;;;;;;5.97;2.00;;;;;;;8.13;90.58;100332.50;5092590;28;20399;-84
2023/04/12 00:58:58;;;;;;;5.57;1.83;;;;;;;8.00;91.79;100321.44;5092606;28;20052;-85
2023/04/12 01:01:24;;;;;;;4.33;1.90;;;;;;;7.92;90.98;100313.81;5092086;28;20468;-86
2023/04/12 01:03:52;;;;;;;5.30;1.80;;;;;;;7.86;90.79;100299.25;5093089;28;20468;-86
2023/04/12 01:06:40;;;;;;;5.10;2.00;;;;;;;7.81;91.71;100293.25;5092505;28;20039;-85
2023/04/12 01:09:30;;;;;;;5.05;2.15;;;;;;;7.87;92.04;100282.88;5091905;28;20020;-85
2023/04/12 01:12:11;;;;;;;5.88;1.80;;;;;;;7.81;92.33;100275.19;5092946;28;20016;-86
2023/04/12 02:09:55;;;;;;;6.00;2.07;;;;;;;7.63;94.79;100110.13;5096662;28;20043;-85
2023/04/12 03:36:33;;;;;;;1.75;1.65;;;;;;;7.50;98.51;99902.88;5853274;22;20067;-86
2023/04/12 03:38:59;;;;;;;3.33;1.73;;;;;;;7.40;97.87;99897.91;5074417;28;20044;-87
2023/04/12 03:41:24;;;;;;;4.28;1.95;;;;;;;7.46;98.35;99883.19;5074409;28;20080;-87
2023/04/12 03:43:49;;;;;;;2.93;1.87;;;;;;;7.35;99.16;99886.81;5073362;28;20028;-87
2023/04/12 03:46:17;;;;;;;2.90;1.70;;;;;;;7.38;98.59;99883.31;5074565;28;20036;-87
2023/04/12 03:48:43;;;;;;;4.82;1.65;;;;;;;7.36;99.56;99891.09;5074911;28;20029;-89
2023/04/12 03:51:10;;;;;;;3.50;1.80;;;;;;;7.39;99.17;99875.53;5074674;28;20085;-89
2023/04/12 03:53:39;;;;;;;5.28;1.85;;;;;;;7.38;99.08;99873.84;5074736;28;20032;-89
2023/04/12 03:56:07;;;;;;;2.05;1.40;;;;;;;7.33;98.71;99857.59;5055143;28;20029;-88
2023/04/12 03:58:32;;;;;;;3.03;1.50;;;;;;;7.33;99.45;99847.25;5053316;28;20068;-88
2023/04/12 04:01:05;;;;;;;2.23;1.47;;;;;;;7.39;98.80;99862.63;5054295;28;20045;-87
2023/04/12 04:03:33;;;;;;;2.33;1.40;;;;;;;7.42;100.00;99854.00;5053424;28;20037;-87
2023/04/12 04:06:01;;;;;;;3.25;1.65;;;;;;;7.53;99.30;99846.91;5054843;28;20083;-87
2023/04/12 04:08:27;;;;;;;2.03;1.40;;;;;;;7.48;100.00;99830.63;5054202;28;20492;-87
2023/04/12 04:10:53;;;;;;;2.90;1.58;;;;;;;7.43;99.29;99829.84;5053391;28;20075;-86
2023/04/12 04:13:19;;;;;;;1.60;1.50;;;;;;;7.39;99.09;99833.41;5053859;28;20021;-87
2023/04/12 04:15:47;;;;;;;6.20;1.93;;;;;;;7.47;99.43;99826.34;5053914;28;20021;-88
2023/04/12 04:40:54;;;;;;;2.72;1.80;;;;;;;7.35;100.00;99791.31;5653786;22;20461;-86
2023/04/12 04:48:33;;;;;;;2.67;1.70;;;;;;;7.29;100.00;99773.34;5393352;22;20057;-86
2023/04/12 04:50:59;;;;;;;3.47;1.65;;;;;;;7.35;100.00;99772.38;5033140;28;20026;-85
2023/04/12 05:09:33;;;;;;;2.63;1.73;;;;;;;7.45;100.00;99773.91;5974441;22;20046;-85
2023/04/12 05:11:59;;;;;;;1.53;1.43;;;;;;;7.44;100.00;99771.34;5423980;22;20433;-85
2023/04/12 05:14:24;;;;;;;3.40;1.70;;;;;;;7.48;100.00;99768.69;5031864;28;20032;-86
2023/04/12 05:19:52;;;;;;;2.00;1.63;;;;;;;7.41;100.00;99744.72;5032320;28;20397;-86
2023/04/12 05:28:16;;;;;;;3.05;1.90;;;;;;;7.45;100.00;99752.41;5175048;22;20057;-86
2023/04/12 05:30:41;;;;;;;1.80;1.50;;;;;;;7.44;100.00;99756.69;5032242;28;20021;-86
2023/04/12 05:33:12;;;;;;;2.33;1.77;;;;;;;7.43;100.00;99752.41;5034708;28;20021;-86
2023/04/12 05:35:37;;;;;;;1.60;1.50;;;;;;;7.46;100.00;99757.53;5035800;28;20367;-86
2023/04/12 05:38:03;;;;;;;3.23;1.57;;;;;;;7.53;100.00;99741.03;5036153;28;20028;-86
2023/04/12 05:40:30;;;;;;;2.30;1.58;;;;;;;7.50;100.00;99743.69;5036486;28;20125;-87
2023/04/12 05:42:56;;;;;;;3.15;1.65;;;;;;;7.52;100.00;99728.16;5035835;28;20359;-87
2023/04/12 05:45:21;;;;;;;1.90;1.60;;;;;;;7.60;100.00;99734.00;5036487;28;20083;-87
2023/04/12 05:47:46;;;;;;;2.35;1.70;;;;;;;7.57;100.00;99742.66;5036284;28;20190;-87
2023/04/12 05:50:11;;;;;;;2.00;1.80;;;;;;;7.58;100.00;99741.78;5035357;28;20084;-87
2023/04/12 05:52:37;;;;;;;4.00;2.20;;;;;;;7.57;100.00;99742.66;5035701;28;20030;-87
2023/04/12 05:55:02;;;;;;;2.10;1.80;;;;;;;7.68;100.00;99739.00;5036241;28;20068;-87
2023/04/12 05:57:27;;;;;;;3.03;1.90;;;;;;;7.60;100.00;99735.75;5035160;28;20037;-87
2023/04/12 05:59:53;;;;;;;1.90;1.80;;;;;;;7.72;100.00;99731.16;5035882;28;20118;-89
2023/04/12 06:02:26;;;;;;;2.43;1.90;;;;;;;7.62;100.00;99736.56;5036446;28;20026;-88
2023/04/12 06:04:52;;;;;;;4.05;1.95;;;;;;;7.60;100.00;99730.56;5035098;28;20056;-85
2023/04/12 06:07:18;;;;;;;2.20;1.80;;;;;;;7.60;100.00;99728.00;5036426;28;20033;-88
2023/04/12 06:09:43;;;;;;;3.25;1.70;;;;;;;7.65;100.00;99723.59;5035924;28;20044;-88
2023/04/12 06:12:09;;;;;;;3.23;1.80;;;;;;;7.69;100.00;99720.06;5036255;28;20056;-88
2023/04/12 06:14:34;;;;;;;1.80;1.70;;;;;;;7.71;100.00;99726.88;5036388;28;20018;-89
2023/04/12 06:17:00;;;;;;;2.08;1.88;;;;;;;7.70;100.00;99720.03;5110193;23;20051;-88
2023/04/12 06:19:36;;;;;;;1.73;1.50;;;;;;;7.67;100.00;99721.81;5074303;28;20107;-87
2023/04/12 06:22:01;;;;;;;2.05;1.80;;;;;;;7.63;100.00;99715.03;5062360;28;20028;-87
2023/04/12 06:24:30;;;;;;;2.83;1.70;;;;;;;7.73;100.00;99727.69;5054794;28;20029;-87
2023/04/12 06:27:04;;;;;;;2.00;1.35;;;;;;;7.66;100.00;99715.81;5049400;28;20032;-86
2023/04/12 06:29:29;;;;;;;2.97;1.70;;;;;;;7.69;100.00;99720.91;5075132;28;20023;-86
2023/04/12 06:31:54;;;;;;;1.77;1.27;;;;;;;7.66;100.00;99707.19;5074785;28;20020;-87
2023/04/12 06:37:24;;;;;;;3.63;1.80;;;;;;;7.71;100.00;99705.38;5082805;28;20383;-86
2023/04/12 06:39:49;;;;;;;1.50;1.40;;;;;;;7.75;100.00;99708.75;5094792;28;20020;-87
2023/04/12 06:42:16;;;;;;;1.60;1.30;;;;;;;7.69;100.00;99695.09;5095761;28;20024;-86
2023/04/12 06:44:41;;;;;;;1.75;1.20;;;;;;;7.74;100.00;99702.75;5094935;28;20117;-86
2023/04/12 06:47:06;;;;;;;1.30;1.30;;;;;;;7.82;100.00;99708.56;5094810;28;20057;-87
2023/04/12 06:49:32;;;;;;;1.43;1.33;;;;;;;7.84;100.00;99711.97;5095253;28;20054;-86
2023/04/12 06:51:57;;;;;;;1.63;1.50;;;;;;;7.84;100.00;99718.88;5083110;28;20033;-87
2023/04/12 06:54:23;;;;;;;1.10;1.10;;;;;;;7.83;100.00;99723.19;5074362;28;20572;-88
2023/04/12 06:56:49;;;;;;;1.17;1.17;;;;;;;7.87;100.00;99731.72;5075412;28;20104;-87
2023/04/12 06:59:14;;;;;;;1.67;1.47;;;;;;;7.84;100.00;99724.03;5075240;28;20055;-87
2023/04/12 07:01:39;;;;;;;1.33;1.30;;;;;;;7.86;100.00;99727.44;5074499;28;20028;-87
2023/04/12 07:04:05;;;;;;;3.50;1.50;;;;;;;7.85;100.00;99724.00;5074884;28;20107;-85
2023/04/12 07:06:36;;;;;;;1.70;1.60;;;;;;;7.89;100.00;99725.63;5074197;28;20052;-85
2023/04/12 07:09:05;;;;;;;1.30;1.20;;;;;;;7.91;100.00;99732.50;5104611;23;20110;-85
2023/04/12 07:11:30;;;;;;;1.27;1.27;;;;;;;7.94;100.00;99716.94;5054661;28;20037;-86
2023/04/12 07:14:21;;;;;;;1.40;1.27;;;;;;;8.02;100.00;99718.47;5074304;28;20020;-87
2023/04/12 07:16:49;;;;;;;3.00;1.70;;;;;;;7.99;100.00;99722.88;5074955;28;20089;-87
2023/04/12 07:19:32;;;;;;;1.20;1.20;;;;;;;7.92;100.00;99703.19;5066482;28;20036;-87
2023/04/12 07:22:09;;;;;;;1.48;1.38;;;;;;;8.01;100.00;99718.47;5084959;28;20040;-87
2023/04/12 07:25:09;;;;;;;1.08;0.98;;;;;;;8.13;100.00;99730.28;5093713;28;20040;-87
2023/04/12 07:28:03;;;;;;;1.33;1.23;;;;;;;8.16;100.00;99727.66;5088664;28;20422;-87
2023/04/12 07:30:28;;;;;;;1.25;1.25;;;;;;;8.13;100.00;99725.97;5088196;28;20124;-87
2023/04/12 07:32:54;;;;;;;1.33;1.20;;;;;;;8.14;100.00;99717.31;5094385;28;20048;-87
2023/04/12 07:36:06;;;;;;;1.15;1.00;;;;;;;8.28;100.00;99729.06;5093715;28;20024;-87
2023/04/12 07:38:41;;;;;;;1.95;1.45;;;;;;;8.21;100.00;99714.59;5088433;28;20028;-87
2023/04/12 07:41:07;;;;;;;1.50;1.40;;;;;;;8.27;100.00;99722.19;5094555;28;20107;-87
2023/04/12 07:43:44;;;;;;;1.80;1.10;;;;;;;8.33;100.00;99709.16;5093579;28;20101;-88
2023/04/12 07:46:10;;;;;;;1.60;1.50;;;;;;;8.35;100.00;99709.94;5093982;28;20023;-88
2023/04/12 07:48:50;;;;;;;1.40;1.30;;;;;;;8.40;100.00;99699.47;5093193;28;20516;-87
2023/04/12 07:51:24;;;;;;;2.97;1.23;;;;;;;8.43;100.00;99713.22;5086477;28;20055;-88
2023/04/12 07:53:55;;;;;;;1.48;1.38;;;;;;;8.47;100.00;99709.66;5094357;28;20020;-88
2023/04/12 07:56:20;;;;;;;1.20;1.10;;;;;;;8.45;100.00;99702.81;5092840;28;20051;-88
2023/04/12 07:58:46;;;;;;;1.83;1.20;;;;;;;8.50;100.00;99707.03;5094554;28;20020;-88
2023/04/12 08:01:12;;;;;;;1.10;1.10;;;;;;;8.53;100.00;99700.06;5094178;28;20491;-89
2023/04/12 08:03:59;;;;;;;0.90;0.90;;;;;;;8.67;100.00;99710.91;5094063;28;20070;-90
2023/04/12 08:06:43;;;;;;;0.90;0.90;;;;;;;8.70;100.00;99702.22;5093252;28;20032;-86
2023/04/12 08:09:42;;;;;;;1.23;1.10;;;;;;;8.78;100.00;99713.22;5093316;28;20051;-87
2023/04/12 08:12:09;;;;;;;0.70;0.70;;;;;;;8.77;100.00;99711.53;5089605;28;20039;-88
2023/04/12 08:14:34;;;;;;;1.23;1.13;;;;;;;8.71;100.00;99704.78;5092621;28;20056;-88
2023/04/12 08:16:59;;;;;;;0.97;0.97;;;;;;;8.71;100.00;99709.09;5092935;28;20491;-88
2023/04/12 08:19:26;;;;;;;1.47;1.27;;;;;;;8.81;100.00;99723.50;5097303;22;20246;-86
2023/04/12 08:21:51;;;;;;;3.47;2.10;;;;;;;8.77;100.00;99730.50;5071252;28;20043;-86
2023/04/12 08:24:18;;;;;;;2.57;2.07;;;;;;;8.74;100.00;99732.28;5052131;28;20021;-85
2023/04/12 08:26:44;;;;;;;2.25;2.00;;;;;;;8.67;100.00;99720.41;5053161;28;20028;-85
2023/04/12 08:29:18;;;;;;;3.37;2.07;;;;;;;8.67;100.00;99726.41;5053129;28;20389;-84
2023/04/12 08:31:44;;;;;;;2.58;1.90;;;;;;;8.65;100.00;99729.06;5057721;28;20488;-83
2023/04/12 08:34:15;;;;;;;2.13;1.90;;;;;;;8.60;100.00;99711.94;5073131;28;20028;-83
2023/04/12 08:36:40;;;;;;;2.45;1.58;;;;;;;8.67;100.00;99718.66;5084109;28;20035;-84
2023/04/12 08:39:06;;;;;;;2.60;1.60;;;;;;;8.70;100.00;99731.53;5092687;28;20103;-84
2023/04/12 08:41:33;;;;;;;2.57;1.50;;;;;;;8.74;100.00;99727.97;5093088;28;20032;-84
2023/04/12 08:43:59;;;;;;;1.58;1.35;;;;;;;8.79;100.00;99718.34;5092993;28;20012;-84
2023/04/12 08:46:25;;;;;;;3.77;1.47;;;;;;;8.89;100.00;99710.38;5062354;28;20110;-84
2023/04/12 08:49:02;;;;;;;2.30;1.50;;;;;;;8.90;100.00;99693.91;5055889;28;20771;-84
2023/04/12 08:51:28;;;;;;;1.70;1.50;;;;;;;9.08;100.00;99698.63;5052823;28;20096;-84
2023/04/12 08:53:53;;;;;;;1.87;1.40;;;;;;;9.31;100.00;99712.66;5051939;28;20119;-84
2023/04/12 08:56:20;;;;;;;1.50;1.40;;;;;;;9.52;100.00;99718.13;5052480;28;20024;-84
2023/04/12 08:58:49;;;;;;;1.65;1.55;;;;;;;9.63;100.00;99705.69;5052521;28;20017;-83
2023/04/12 09:01:16;;;;;;;2.35;1.60;;;;;;;9.84;99.88;99716.31;5052897;28;20029;-84
2023/04/12 09:03:45;;;;;;;;;;;;;;;9.97;99.56;99719.38;5051749;28;20026;-84
2023/04/12 09:06:14;;;;;;;2.00;1.70;;;;;;;10.12;99.65;99710.28;5051606;28;19909;-85
2023/04/12 09:08:53;;;;;;;3.53;1.70;;;;;;;10.26;98.79;99715.03;5052557;28;20029;-85
2023/04/12 09:11:26;;;;;;;3.03;1.92;;;;;;;10.39;98.83;99708.56;5052845;28;20025;-85
2023/04/12 09:39:12;;;;;;;4.30;2.50;;;;;;;11.78;92.54;99695.00;5321966;22;20503;-85
2023/04/12 09:41:38;;;;;;;3.20;2.50;;;;;;;11.69;92.87;99692.75;5071680;28;20052;-86
2023/04/12 09:44:03;;;;;;;5.00;2.90;;;;;;;11.59;92.83;99687.94;5072773;28;20545;-86
2023/04/12 09:46:29;;;;;;;3.57;2.40;;;;;;;11.57;93.38;99687.13;5072424;28;20032;-87
2023/04/12 09:49:00;;;;;;;5.67;3.20;;;;;;;11.61;90.06;99692.19;5071719;28;20032;-86
2023/04/12 09:51:51;;;;;;;7.47;3.17;;;;;;;11.51;90.82;99673.53;5072186;28;20021;-87
2023/04/12 09:54:17;;;;;;;6.22;3.00;;;;;;;11.52;91.17;99663.06;5072267;28;20026;-87
2023/04/12 09:56:43;;;;;;;6.23;2.57;;;;;;;11.69;91.18;99671.97;5070826;28;20032;-87
2023/04/12 09:59:10;;;;;;;7.75;2.85;;;;;;;11.68;nan;99668.50;5071933;28;20035;-86
2023/04/12 10:01:39;;;;;;;3.90;2.35;;;;;;;11.68;91.01;99675.47;5071794;28;20112;-87
2023/04/12 10:04:06;;;;;;;6.03;2.70;;;;;;;11.67;90.63;99676.38;5072078;28;20024;-87
2023/04/12 10:40:23;;;;;;;6.88;2.92;;;;;;;11.67;85.35;99694.56;6147489;22;20094;-85
2023/04/12 10:43:17;;;;;;;6.35;2.33;;;;;;;11.70;86.02;99697.06;5034852;28;20098;-85
2023/04/12 10:45:44;;;;;;;6.03;2.20;;;;;;;11.76;86.30;99689.00;5051086;22;20140;-85
2023/04/12 10:48:46;;;;;;;8.25;2.42;;;;;;;11.77;85.64;99692.44;5035206;28;20056;-85
2023/04/12 10:51:13;;;;;;;7.38;2.60;;;;;;;11.76;84.26;99702.00;5035318;28;20029;-86
2023/04/12 10:53:39;;;;;;;;;;;;;;;11.72;85.72;99705.63;5034787;28;20105;-85
2023/04/12 10:56:30;;;;;;;10.43;2.70;;;;;;;11.54;81.21;99702.81;5034847;28;20425;-86
2023/04/12 10:58:59;;;;;;;10.10;2.70;;;;;;;11.39;81.55;99706.84;5034067;28;20083;-85
2023/04/12 11:01:25;;;;;;;6.13;2.20;;;;;;;11.27;82.59;99705.53;5034713;28;20446;-85
2023/04/12 11:04:13;;;;;;;4.80;2.03;;;;;;;11.25;84.72;99706.50;5035051;28;20111;-85
2023/04/12 11:07:02;;;;;;;5.95;2.00;;;;;;;11.23;84.76;99718.69;5033850;28;20355;-85
2023/04/12 11:09:29;;;;;;;7.00;2.28;;;;;;;11.30;83.20;99708.94;5034693;28;20124;-85
2023/04/12 11:12:03;;;;;;;7.28;2.28;;;;;;;11.06;83.08;99714.09;5034376;28;20381;-85
2023/04/12 11:14:33;;;;;;;5.10;2.03;;;;;;;11.03;84.18;99714.22;5033759;28;20087;-86
2023/04/12 11:17:07;;;;;;;4.13;1.80;;;;;;;11.02;84.51;99721.16;5034890;28;20025;-85
2023/04/12 11:19:36;;;;;;;5.70;2.00;;;;;;;10.99;83.36;99710.03;5033628;28;20359;-85
2023/04/12 11:22:06;;;;;;;6.10;2.20;;;;;;;11.06;85.38;99721.88;5034494;28;20553;-85
2023/04/12 11:24:36;;;;;;;6.22;2.00;;;;;;;11.07;84.55;99721.84;5034727;28;20032;-85
2023/04/12 11:27:02;;;;;;;5.53;2.47;;;;;;;11.11;85.39;99727.78;5041005;23;20049;-85
2023/04/12 11:29:27;;;;;;;7.60;2.70;;;;;;;11.10;85.73;99720.88;5032869;28;20486;-85
2023/04/12 11:31:54;;;;;;;10.13;3.17;;;;;;;11.08;86.23;99722.69;5034257;28;20017;-85
2023/04/12 11:34:20;;;;;;;7.47;2.65;;;;;;;11.07;86.19;99721.00;5033394;28;20029;-84
2023/04/12 11:36:47;;;;;;;3.60;2.23;;;;;;;11.06;86.93;99708.91;5035247;28;20492;-90
2023/04/12 11:39:12;;;;;;;;;;;;;;;11.18;87.24;99705.03;5035809;28;20025;-86
2023/04/12 11:41:44;;;;;;;6.30;2.73;;;;;;;11.24;86.59;99695.28;5033601;28;19927;-86
2023/04/12 11:44:09;;;;;;;6.32;2.80;;;;;;;11.37;86.55;99697.44;5034132;28;20017;-85
2023/04/12 11:46:38;;;;;;;4.40;2.30;;;;;;;11.59;85.87;99700.91;5034293;28;20075;-85
2023/04/12 11:49:03;;;;;;;3.70;2.13;;;;;;;11.92;86.71;99698.81;5033367;28;20080;-84
2023/04/12 11:51:31;;;;;;;8.03;2.80;;;;;;;12.11;81.23;99702.41;5033556;28;20018;-85
2023/04/12 11:54:00;;;;;;;6.18;2.40;;;;;;;12.13;79.92;99700.59;5033903;28;20539;-85
2023/04/12 11:56:26;;;;;;;7.25;2.30;;;;;;;12.09;76.43;99701.63;5033162;28;20026;-85
2023/04/12 11:58:51;;;;;;;4.75;2.13;;;;;;;12.17;80.63;99699.56;5314850;22;20006;-85
2023/04/12 12:01:19;;;;;;;4.77;2.20;;;;;;;12.37;77.83;99705.72;5053920;28;20033;-85
2023/04/12 12:03:45;;;;;;;3.75;1.75;;;;;;;12.63;77.18;99706.38;5053241;28;20031;-85
2023/04/12 12:06:12;;;;;;;4.88;2.00;;;;;;;12.89;77.06;99704.44;5053723;28;20393;-86
2023/04/12 12:08:38;;;;;;;7.43;2.10;;;;;;;12.87;74.93;99704.50;5053347;28;20497;-86
2023/04/12 12:11:04;;;;;;;5.50;2.00;;;;;;;12.75;76.65;99707.63;5053276;28;20086;-86
2023/04/12 12:13:45;;;;;;;4.20;1.90;;;;;;;12.57;72.39;99723.09;5053519;28;20466;-86
2023/04/12 12:16:11;;;;;;;5.65;1.85;;;;;;;12.25;70.71;99727.88;5052698;28;20032;-86
2023/04/12 12:18:45;;;;;;;6.05;2.00;;;;;;;11.89;70.48;99744.84;5053159;28;20025;-86
2023/04/12 12:21:14;;;;;;;6.38;2.53;;;;;;;11.43;66.96;99760.38;5053581;28;20032;-85
2023/04/12 12:23:44;;;;;;;5.88;2.50;;;;;;;10.97;68.25;99764.63;5052684;28;20024;-86
2023/04/12 12:26:19;;;;;;;7.45;2.60;;;;;;;10.67;73.67;99764.72;5053404;28;20116;-85
2023/04/12 12:28:49;;;;;;;6.03;2.47;;;;;;;10.50;76.17;99767.88;5053331;28;20025;-85
2023/04/12 12:31:19;;;;;;;5.55;2.10;;;;;;;10.25;74.13;99765.19;5052503;28;20473;-85
2023/04/12 12:33:44;;;;;;;4.03;2.20;;;;;;;10.17;76.54;99781.84;5053617;28;20021;-83
2023/04/12 12:36:10;;;;;;;4.93;2.30;;;;;;;10.04;77.66;99773.56;5053328;28;20083;-85
2023/04/12 12:38:39;;;;;;;5.57;2.40;;;;;;;9.98;78.79;99776.34;5052107;28;20025;-88
2023/04/12 12:41:18;;;;;;;5.03;2.30;;;;;;;9.88;81.11;99761.97;5053088;28;20029;-89
2023/04/12 12:43:51;;;;;;;5.82;2.20;;;;;;;9.94;85.16;99746.22;5053099;28;20029;-88
2023/04/12 12:46:18;;;;;;;4.88;2.22;;;;;;;10.20;82.10;99734.22;5053234;28;20037;-85
2023/04/12 12:48:45;;;;;;;5.75;2.40;;;;;;;10.55;83.41;99737.44;5053019;28;20100;-86
2023/04/12 12:51:11;;;;;;;6.28;2.10;;;;;;;10.97;82.08;99741.25;5051890;28;20037;-86
2023/04/12 12:53:38;;;;;;;3.42;2.00;;;;;;;11.30;83.42;99730.56;5053169;28;20025;-87
2023/04/12 12:56:04;;;;;;;4.72;2.10;;;;;;;11.44;81.25;99736.09;5053067;28;20454;-89
2023/04/12 12:58:30;;;;;;;5.67;2.33;;;;;;;11.54;81.51;99739.22;5052713;28;20104;-88
2023/04/12 13:00:55;;;;;;;3.60;2.10;;;;;;;11.57;80.20;99730.44;5053101;28;20118;-88
2023/04/12 13:03:20;;;;;;;5.30;2.10;;;;;;;11.54;80.78;99734.00;5053312;28;20029;-87
2023/04/12 13:05:46;;;;;;;2.50;1.90;;;;;;;11.57;80.64;99727.84;5052560;28;20036;-87
2023/04/12 13:08:11;;;;;;;2.50;1.97;;;;;;;11.60;80.43;99730.34;5052987;28;20025;-87
2023/04/12 13:10:37;;;;;;;3.50;2.00;;;;;;;11.64;79.95;99736.25;5052808;28;20116;-88
2023/04/12 13:13:02;;;;;;;3.77;2.10;;;;;;;11.55;80.62;99716.66;5052893;28;20056;-88
2023/04/12 13:15:28;;;;;;;2.57;1.90;;;;;;;11.55;80.55;99734.84;5052998;28;20088;-88
2023/04/12 13:17:54;;;;;;;3.50;1.73;;;;;;;11.51;80.60;99736.72;5053062;28;20150;-88
2023/04/12 13:20:20;;;;;;;2.38;1.42;;;;;;;11.39;79.52;99743.22;5052146;28;20032;-88
2023/04/12 13:22:45;;;;;;;3.87;1.43;;;;;;;11.21;79.02;99743.88;5051951;28;20420;-88
2023/04/12 13:30:29;;;;;;;3.15;1.80;;;;;;;10.44;79.71;99786.25;6108942;22;20313;-88
2023/04/12 13:32:55;;;;;;;3.00;1.73;;;;;;;10.21;80.00;99780.00;5093732;28;20024;-89
2023/04/12 13:35:20;;;;;;;2.83;1.60;;;;;;;9.96;79.61;99778.16;5092729;28;20028;-88
2023/04/12 13:37:46;;;;;;;4.27;1.57;;;;;;;9.78;81.50;99769.16;5093337;28;20479;-88
2023/04/12 13:40:12;;;;;;;3.83;2.23;;;;;;;9.73;81.51;99747.75;5093030;28;20024;-87
2023/04/12 13:42:37;;;;;;;4.35;1.77;;;;;;;9.50;81.77;99733.72;5093162;28;20340;-87
2023/04/12 13:45:03;;;;;;;3.17;1.60;;;;;;;9.41;81.94;99747.75;5085739;28;20023;-87
2023/04/12 13:47:30;;;;;;;1.98;1.17;;;;;;;9.41;82.77;99749.50;5072008;28;20024;-88
2023/04/12 13:49:57;;;;;;;1.07;0.80;;;;;;;9.39;84.46;99739.19;5072781;28;20107;-87
2023/04/12 13:52:22;;;;;;;3.47;1.30;;;;;;;9.47;82.42;99735.50;5072108;28;20056;-87
2023/04/12 13:54:48;;;;;;;1.97;1.23;;;;;;;9.56;82.20;99730.94;5075298;28;20113;-87
2023/04/12 13:57:13;;;;;;;1.23;1.00;;;;;;;9.72;83.19;99730.50;5078043;28;20025;-87
2023/04/12 13:59:38;;;;;;;1.87;0.90;;;;;;;9.77;82.28;99728.59;5076101;28;20068;-87
2023/04/12 14:02:03;;;;;;;1.93;1.00;;;;;;;9.89;82.70;99730.00;5075975;28;20033;-87
2023/04/12 14:09:39;;;;;;;2.35;0.90;;;;;;;10.63;84.57;99740.63;6148997;22;20031;-87
2023/04/12 14:12:04;;;;;;;2.00;1.20;;;;;;;10.83;82.05;99731.31;5056479;28;20025;-87
2023/04/12 14:14:30;;;;;;;4.37;1.53;;;;;;;11.05;81.44;99725.38;5056007;28;20056;-87
2023/04/12 14:17:00;;;;;;;4.87;1.60;;;;;;;11.17;80.71;99730.16;5055681;28;20104;-87
2023/04/12 14:19:26;;;;;;;2.38;1.50;;;;;;;11.08;81.49;99722.69;5055680;28;20021;-88
2023/04/12 14:21:54;;;;;;;2.33;1.30;;;;;;;11.02;81.48;99725.50;5055973;28;20035;-87
2023/04/12 14:24:20;;;;;;;1.15;1.15;;;;;;;10.96;80.50;99722.22;5055431;28;20376;-87
2023/04/12 14:26:47;;;;;;;2.20;1.60;;;;;;;10.80;81.42;99731.44;5055991;28;20108;-88
2023/04/12 14:29:12;;;;;;;2.33;1.23;;;;;;;10.70;81.55;99746.47;5055790;28;20385;-88
2023/04/12 14:31:38;;;;;;;1.97;1.20;;;;;;;10.60;81.88;99740.72;5054909;28;20024;-88
2023/04/12 14:34:04;;;;;;;1.07;0.90;;;;;;;10.47;82.19;99755.84;5055623;28;20025;-88
2023/04/12 14:36:30;;;;;;;1.27;1.05;;;;;;;10.35;82.62;99795.13;5054797;28;20377;-87
2023/04/12 14:38:56;;;;;;;3.17;1.50;;;;;;;9.96;80.01;99852.47;5055948;28;20040;-89
2023/04/12 14:41:21;;;;;;;1.50;1.17;;;;;;;9.41;80.63;99846.16;5056071;28;20104;-89
2023/04/12 14:43:47;;;;;;;0.87;0.83;;;;;;;8.91;81.04;99815.53;5254638;22;20098;-88
2023/04/12 14:46:12;;;;;;;0.70;0.70;;;;;;;8.53;82.42;99794.00;5088933;28;20036;-90
2023/04/12 14:49:06;;;;;;;0.87;0.60;;;;;;;8.47;83.53;99805.34;5096531;28;20380;-89
2023/04/12 14:51:50;;;;;;;1.08;0.50;;;;;;;8.32;83.78;99795.34;5066544;28;20063;-89
2023/04/12 14:54:56;;;;;;;0.30;0.30;;;;;;;8.23;84.06;99801.56;5075704;28;20032;-89
2023/04/12 14:57:21;;;;;;;;;;;;;;;8.13;84.43;99806.06;5076107;28;20024;-86
2023/04/12 14:59:47;;;;;;;1.50;0.40;;;;;;;8.01;84.49;99799.44;5075393;28;20339;-90
2023/04/12 15:02:12;;;;;;;0.30;0.30;;;;;;;8.00;84.73;99802.06;5076106;28;20031;-89
2023/04/12 15:04:39;;;;;;;0.67;0.30;;;;;;;8.03;84.58;99802.00;5074989;28;20039;-89
2023/04/12 15:07:04;;;;;;;0.65;0.30;;;;;;;7.97;85.39;99789.22;5074206;28;20102;-90
2023/04/12 15:09:30;;;;;;;0.47;0.47;;;;;;;7.87;85.35;99775.63;5075606;28;20054;-88
2023/04/12 15:11:59;;;;;;;0.40;0.30;;;;;;;7.87;85.12;99773.06;5074354;28;20830;-91
2023/04/12 15:14:26;;;;;;;0.40;0.40;;;;;;;7.87;85.14;99763.59;5075414;28;20028;-89
2023/04/12 15:16:57;;;;;;;0.68;0.68;;;;;;;7.93;85.37;99778.09;5075206;28;20024;-89
2023/04/12 15:19:30;;;;;;;0.20;0.20;;;;;;;7.98;85.71;99790.91;5074834;28;20028;-88
2023/04/12 15:21:55;;;;;;;1.02;0.50;;;;;;;7.95;85.40;99775.47;5074817;28;20388;-88
2023/04/12 15:24:21;;;;;;;0.73;0.40;;;;;;;8.05;85.24;99789.91;5073748;28;20021;-86
2023/04/12 15:26:51;;;;;;;0.57;0.30;;;;;;;8.09;85.21;99782.91;5075024;28;20491;-86
2023/04/12 15:29:17;;;;;;;1.13;0.77;;;;;;;8.12;85.67;99783.69;5074375;28;20020;-86
2023/04/12 15:31:43;;;;;;;0.70;0.50;;;;;;;8.14;85.72;99786.25;5073318;28;20041;-86
2023/04/12 15:34:09;;;;;;;0.50;0.50;;;;;;;8.20;85.69;99791.28;5072676;28;20082;-86
2023/04/12 15:36:36;;;;;;;0.47;0.47;;;;;;;8.31;86.21;99785.88;5074294;28;20036;-86
2023/04/12 15:39:03;;;;;;;0.40;0.40;;;;;;;8.39;85.79;99776.22;5073841;28;20465;-86
2023/04/12 15:41:38;;;;;;;0.93;0.70;;;;;;;8.48;85.53;99765.66;5073261;28;20074;-85
2023/04/12 15:44:05;;;;;;;1.33;0.77;;;;;;;8.45;86.61;99770.03;5073586;28;20040;-86
2023/04/12 15:46:33;;;;;;;0.80;0.80;;;;;;;8.54;85.58;99769.00;5073842;28;20078;-86
2023/04/12 15:48:59;;;;;;;1.45;0.90;;;;;;;8.69;85.62;99765.19;5084549;28;20031;-86
2023/04/12 15:51:26;;;;;;;1.20;0.80;;;;;;;8.82;86.14;99758.84;5094094;28;20028;-86
2023/04/12 15:53:52;;;;;;;;;;;;;;;8.98;85.69;99758.41;5093687;28;20107;-86
2023/04/12 15:56:18;;;;;;;1.07;1.07;;;;;;;9.01;86.85;99756.59;5093932;28;19995;-88
2023/04/12 15:58:45;;;;;;;1.50;1.00;;;;;;;9.01;84.80;99755.75;5094397;28;20527;-87
2023/04/12 16:01:10;;;;;;;1.25;1.15;;;;;;;9.13;85.94;99752.84;5093365;28;20052;-85
2023/04/12 16:03:35;;;;;;;1.50;1.40;;;;;;;9.16;85.48;99746.72;5092921;28;20063;-85
2023/04/12 16:06:01;;;;;;;1.53;1.43;;;;;;;9.10;85.75;99738.25;5094162;28;20036;-84
2023/04/12 16:08:27;;;;;;;2.13;1.40;;;;;;;9.05;84.86;99740.09;5092895;28;20471;-84